sensor_id;sensor_type;location;lat;lon;timestamp;temperature;humidity
52799;DHT22;38667;42.872;74.622;2022-07-04T00:01:46;24.00;43.30
52799;DHT22;38667;42.872;74.622;2022-07-04T00:04:12;24.00;42.70
52799;DHT22;38667;42.872;74.622;2022-07-04T00:06:38;24.10;42.60
52799;DHT22;38667;42.872;74.622;2022-07-04T00:09:05;24.10;43.30
52799;DHT22;38667;42.872;74.622;2022-07-04T00:11:31;24.10;42.80
52799;DHT22;38667;42.872;74.622;2022-07-04T00:13:59;24.10;44.30
52799;DHT22;38667;42.872;74.622;2022-07-04T00:16:25;23.90;46.40
52799;DHT22;38667;42.872;74.622;2022-07-04T00:18:51;23.70;45.60
52799;DHT22;38667;42.872;74.622;2022-07-04T00:21:18;23.80;46.80
52799;DHT22;38667;42.872;74.622;2022-07-04T00:23:44;23.80;46.30
52799;DHT22;38667;42.872;74.622;2022-07-04T00:26:10;23.80;49.50
52799;DHT22;38667;42.872;74.622;2022-07-04T00:28:37;23.80;46.70
52799;DHT22;38667;42.872;74.622;2022-07-04T00:31:04;23.90;51.70
52799;DHT22;38667;42.872;74.622;2022-07-04T00:33:31;23.80;48.00
52799;DHT22;38667;42.872;74.622;2022-07-04T00:35:57;23.90;42.90
52799;DHT22;38667;42.872;74.622;2022-07-04T00:38:23;24.10;40.00
52799;DHT22;38667;42.872;74.622;2022-07-04T00:40:50;24.30;39.80
52799;DHT22;38667;42.872;74.622;2022-07-04T00:43:22;24.40;39.70
52799;DHT22;38667;42.872;74.622;2022-07-04T00:45:48;24.50;40.40
52799;DHT22;38667;42.872;74.622;2022-07-04T00:48:16;24.50;41.90
52799;DHT22;38667;42.872;74.622;2022-07-04T00:50:42;24.50;40.30
52799;DHT22;38667;42.872;74.622;2022-07-04T00:53:09;24.60;40.50
52799;DHT22;38667;42.872;74.622;2022-07-04T00:55:36;24.60;43.00
52799;DHT22;38667;42.872;74.622;2022-07-04T00:58:02;24.50;44.70
52799;DHT22;38667;42.872;74.622;2022-07-04T01:00:28;24.50;47.60
52799;DHT22;38667;42.872;74.622;2022-07-04T01:02:55;24.30;47.10
52799;DHT22;38667;42.872;74.622;2022-07-04T01:05:23;24.30;46.60
52799;DHT22;38667;42.872;74.622;2022-07-04T01:07:50;24.30;48.10
52799;DHT22;38667;42.872;74.622;2022-07-04T01:10:16;24.30;48.10
52799;DHT22;38667;42.872;74.622;2022-07-04T01:12:43;24.40;47.20
52799;DHT22;38667;42.872;74.622;2022-07-04T01:15:09;24.50;47.80
52799;DHT22;38667;42.872;74.622;2022-07-04T01:17:36;24.50;48.50
52799;DHT22;38667;42.872;74.622;2022-07-04T01:20:03;24.50;49.40
52799;DHT22;38667;42.872;74.622;2022-07-04T01:22:30;24.50;49.60
52799;DHT22;38667;42.872;74.622;2022-07-04T01:24:57;24.50;48.20
52799;DHT22;38667;42.872;74.622;2022-07-04T01:27:23;24.50;47.40
52799;DHT22;38667;42.872;74.622;2022-07-04T01:29:49;24.60;47.50
52799;DHT22;38667;42.872;74.622;2022-07-04T01:32:16;24.80;45.30
52799;DHT22;38667;42.872;74.622;2022-07-04T01:34:42;24.90;45.10
52799;DHT22;38667;42.872;74.622;2022-07-04T01:37:08;25.00;43.60
52799;DHT22;38667;42.872;74.622;2022-07-04T01:39:36;25.20;42.80
52799;DHT22;38667;42.872;74.622;2022-07-04T01:42:03;25.30;42.60
52799;DHT22;38667;42.872;74.622;2022-07-04T01:44:30;25.40;42.20
52799;DHT22;38667;42.872;74.622;2022-07-04T01:46:56;25.50;41.50
52799;DHT22;38667;42.872;74.622;2022-07-04T01:49:22;25.60;42.00
52799;DHT22;38667;42.872;74.622;2022-07-04T01:51:50;25.60;43.20
52799;DHT22;38667;42.872;74.622;2022-07-04T01:54:17;25.60;45.80
52799;DHT22;38667;42.872;74.622;2022-07-04T01:56:45;25.50;46.10
52799;DHT22;38667;42.872;74.622;2022-07-04T01:59:11;25.50;46.30
52799;DHT22;38667;42.872;74.622;2022-07-04T02:04:41;25.50;48.50
52799;DHT22;38667;42.872;74.622;2022-07-04T02:07:07;25.50;47.00
52799;DHT22;38667;42.872;74.622;2022-07-04T02:09:34;25.60;47.50
52799;DHT22;38667;42.872;74.622;2022-07-04T02:12:01;25.60;47.30
52799;DHT22;38667;42.872;74.622;2022-07-04T02:14:28;25.60;46.60
52799;DHT22;38667;42.872;74.622;2022-07-04T02:16:54;25.60;46.30
52799;DHT22;38667;42.872;74.622;2022-07-04T02:19:21;25.70;45.40
52799;DHT22;38667;42.872;74.622;2022-07-04T02:21:47;25.80;45.70
52799;DHT22;38667;42.872;74.622;2022-07-04T02:24:14;25.80;44.90
52799;DHT22;38667;42.872;74.622;2022-07-04T02:26:40;25.90;44.30
52799;DHT22;38667;42.872;74.622;2022-07-04T02:29:08;26.00;44.10
52799;DHT22;38667;42.872;74.622;2022-07-04T02:31:34;26.10;43.50
52799;DHT22;38667;42.872;74.622;2022-07-04T02:34:01;26.10;43.20
52799;DHT22;38667;42.872;74.622;2022-07-04T02:36:27;26.20;42.80
52799;DHT22;38667;42.872;74.622;2022-07-04T02:38:53;26.20;43.40
52799;DHT22;38667;42.872;74.622;2022-07-04T02:41:19;26.30;43.00
52799;DHT22;38667;42.872;74.622;2022-07-04T02:43:46;26.40;42.50
52799;DHT22;38667;42.872;74.622;2022-07-04T02:46:14;26.40;42.10
52799;DHT22;38667;42.872;74.622;2022-07-04T02:48:40;26.40;41.50
52799;DHT22;38667;42.872;74.622;2022-07-04T02:51:06;26.50;41.20
52799;DHT22;38667;42.872;74.622;2022-07-04T02:53:32;26.50;40.90
52799;DHT22;38667;42.872;74.622;2022-07-04T02:55:59;26.60;40.20
52799;DHT22;38667;42.872;74.622;2022-07-04T02:58:25;26.60;39.60
52799;DHT22;38667;42.872;74.622;2022-07-04T03:00:51;26.70;39.70
52799;DHT22;38667;42.872;74.622;2022-07-04T03:03:19;26.80;39.60
52799;DHT22;38667;42.872;74.622;2022-07-04T03:05:45;26.90;39.10
52799;DHT22;38667;42.872;74.622;2022-07-04T03:08:12;27.00;39.60
52799;DHT22;38667;42.872;74.622;2022-07-04T03:10:38;27.00;39.20
52799;DHT22;38667;42.872;74.622;2022-07-04T03:13:04;27.10;38.20
52799;DHT22;38667;42.872;74.622;2022-07-04T03:15:31;27.10;37.20
52799;DHT22;38667;42.872;74.622;2022-07-04T03:17:57;27.20;37.30
52799;DHT22;38667;42.872;74.622;2022-07-04T03:20:25;27.30;37.50
52799;DHT22;38667;42.872;74.622;2022-07-04T03:22:52;27.40;37.20
52799;DHT22;38667;42.872;74.622;2022-07-04T03:25:18;27.50;37.20
52799;DHT22;38667;42.872;74.622;2022-07-04T03:27:44;27.40;37.20
52799;DHT22;38667;42.872;74.622;2022-07-04T03:30:11;27.50;36.80
52799;DHT22;38667;42.872;74.622;2022-07-04T03:32:38;27.50;37.30
52799;DHT22;38667;42.872;74.622;2022-07-04T03:35:05;27.50;35.20
52799;DHT22;38667;42.872;74.622;2022-07-04T03:37:32;27.60;34.60
52799;DHT22;38667;42.872;74.622;2022-07-04T03:39:59;27.70;36.00
52799;DHT22;38667;42.872;74.622;2022-07-04T03:42:25;27.70;35.80
52799;DHT22;38667;42.872;74.622;2022-07-04T03:44:51;27.70;35.80
52799;DHT22;38667;42.872;74.622;2022-07-04T03:47:18;27.80;35.70
52799;DHT22;38667;42.872;74.622;2022-07-04T03:49:44;27.90;35.50
52799;DHT22;38667;42.872;74.622;2022-07-04T03:52:10;28.00;35.30
52799;DHT22;38667;42.872;74.622;2022-07-04T03:54:38;28.00;33.70
52799;DHT22;38667;42.872;74.622;2022-07-04T03:57:05;28.20;32.10
52799;DHT22;38667;42.872;74.622;2022-07-04T03:59:31;28.30;32.50
52799;DHT22;38667;42.872;74.622;2022-07-04T04:01:58;28.30;33.50
52799;DHT22;38667;42.872;74.622;2022-07-04T04:04:24;28.40;34.10
52799;DHT22;38667;42.872;74.622;2022-07-04T04:06:50;28.40;34.20
52799;DHT22;38667;42.872;74.622;2022-07-04T04:09:17;28.40;34.90
52799;DHT22;38667;42.872;74.622;2022-07-04T04:11:44;28.50;35.10
52799;DHT22;38667;42.872;74.622;2022-07-04T04:14:11;28.60;35.20
52799;DHT22;38667;42.872;74.622;2022-07-04T04:16:37;28.50;34.80
52799;DHT22;38667;42.872;74.622;2022-07-04T04:19:03;28.60;35.30
52799;DHT22;38667;42.872;74.622;2022-07-04T04:21:30;28.60;34.80
52799;DHT22;38667;42.872;74.622;2022-07-04T04:23:56;28.70;34.60
52799;DHT22;38667;42.872;74.622;2022-07-04T04:26:22;28.70;34.90
52799;DHT22;38667;42.872;74.622;2022-07-04T04:28:50;28.80;34.50
52799;DHT22;38667;42.872;74.622;2022-07-04T04:31:16;28.90;34.00
52799;DHT22;38667;42.872;74.622;2022-07-04T04:33:43;28.90;34.10
52799;DHT22;38667;42.872;74.622;2022-07-04T04:36:09;29.00;34.90
52799;DHT22;38667;42.872;74.622;2022-07-04T07:55:25;31.90;28.00
52799;DHT22;38667;42.872;74.622;2022-07-04T07:57:52;31.90;28.60
52799;DHT22;38667;42.872;74.622;2022-07-04T08:00:18;32.00;28.70
52799;DHT22;38667;42.872;74.622;2022-07-04T08:02:44;31.70;29.20
52799;DHT22;38667;42.872;74.622;2022-07-04T08:05:11;31.80;28.10
52799;DHT22;38667;42.872;74.622;2022-07-04T08:07:38;31.80;30.50
52799;DHT22;38667;42.872;74.622;2022-07-04T08:10:06;32.00;28.30
52799;DHT22;38667;42.872;74.622;2022-07-04T08:12:34;32.00;28.70
52799;DHT22;38667;42.872;74.622;2022-07-04T08:15:00;32.20;28.50
52799;DHT22;38667;42.872;74.622;2022-07-04T08:17:26;32.10;28.50
52799;DHT22;38667;42.872;74.622;2022-07-04T08:19:53;31.50;28.80
52799;DHT22;38667;42.872;74.622;2022-07-04T08:22:19;31.30;29.00
52799;DHT22;38667;42.872;74.622;2022-07-04T08:24:45;31.10;29.20
52799;DHT22;38667;42.872;74.622;2022-07-04T08:27:12;31.10;30.00
52799;DHT22;38667;42.872;74.622;2022-07-04T08:29:40;30.90;29.20
52799;DHT22;38667;42.872;74.622;2022-07-04T08:32:07;31.20;29.70
52799;DHT22;38667;42.872;74.622;2022-07-04T08:34:33;32.40;27.30
52799;DHT22;38667;42.872;74.622;2022-07-04T08:36:59;33.00;27.70
52799;DHT22;38667;42.872;74.622;2022-07-04T08:39:26;32.20;28.70
52799;DHT22;38667;42.872;74.622;2022-07-04T08:41:53;31.60;29.10
52799;DHT22;38667;42.872;74.622;2022-07-04T08:44:22;31.90;28.80
52799;DHT22;38667;42.872;74.622;2022-07-04T08:46:53;32.00;29.20
52799;DHT22;38667;42.872;74.622;2022-07-04T08:49:21;32.00;28.90
52799;DHT22;38667;42.872;74.622;2022-07-04T08:51:52;32.80;26.90
52799;DHT22;38667;42.872;74.622;2022-07-04T08:54:21;33.10;28.20
52799;DHT22;38667;42.872;74.622;2022-07-04T08:56:48;32.20;28.90
52799;DHT22;38667;42.872;74.622;2022-07-04T08:59:14;31.80;29.00
52799;DHT22;38667;42.872;74.622;2022-07-04T09:01:42;31.50;28.80
52799;DHT22;38667;42.872;74.622;2022-07-04T09:04:11;31.30;28.70
52799;DHT22;38667;42.872;74.622;2022-07-04T09:06:40;31.40;28.50
52799;DHT22;38667;42.872;74.622;2022-07-04T09:09:07;31.00;30.40
52799;DHT22;38667;42.872;74.622;2022-07-04T09:11:33;31.00;30.00
52799;DHT22;38667;42.872;74.622;2022-07-04T09:14:00;31.80;29.90
52799;DHT22;38667;42.872;74.622;2022-07-04T09:16:26;32.50;28.10
52799;DHT22;38667;42.872;74.622;2022-07-04T09:18:53;32.30;29.10
52799;DHT22;38667;42.872;74.622;2022-07-04T09:21:23;32.00;29.90
52799;DHT22;38667;42.872;74.622;2022-07-04T09:24:07;31.50;28.90
52799;DHT22;38667;42.872;74.622;2022-07-04T09:26:34;31.70;28.60
52799;DHT22;38667;42.872;74.622;2022-07-04T09:29:05;31.10;28.80
52799;DHT22;38667;42.872;74.622;2022-07-04T09:31:32;30.80;29.90
52799;DHT22;38667;42.872;74.622;2022-07-04T09:33:59;30.70;29.30
52799;DHT22;38667;42.872;74.622;2022-07-04T09:36:28;30.70;28.70
52799;DHT22;38667;42.872;74.622;2022-07-04T09:39:12;30.80;29.00
52799;DHT22;38667;42.872;74.622;2022-07-04T09:41:51;30.90;28.80
52799;DHT22;38667;42.872;74.622;2022-07-04T09:44:18;30.60;29.50
52799;DHT22;38667;42.872;74.622;2022-07-04T09:46:45;30.50;28.90
52799;DHT22;38667;42.872;74.622;2022-07-04T09:49:11;30.50;29.90
52799;DHT22;38667;42.872;74.622;2022-07-04T09:51:43;31.00;29.80
52799;DHT22;38667;42.872;74.622;2022-07-04T09:54:21;31.30;29.60
52799;DHT22;38667;42.872;74.622;2022-07-04T09:56:49;32.00;28.90
52799;DHT22;38667;42.872;74.622;2022-07-04T09:59:15;31.40;30.00
52799;DHT22;38667;42.872;74.622;2022-07-04T10:01:42;31.30;28.00
52799;DHT22;38667;42.872;74.622;2022-07-04T10:04:08;31.20;29.10
52799;DHT22;38667;42.872;74.622;2022-07-04T10:06:39;30.90;28.60
52799;DHT22;38667;42.872;74.622;2022-07-04T10:09:14;31.20;29.40
52799;DHT22;38667;42.872;74.622;2022-07-04T10:11:43;31.20;29.40
52799;DHT22;38667;42.872;74.622;2022-07-04T10:14:10;31.00;29.10
52799;DHT22;38667;42.872;74.622;2022-07-04T10:16:38;30.80;29.10
52799;DHT22;38667;42.872;74.622;2022-07-04T10:19:05;30.60;30.30
52799;DHT22;38667;42.872;74.622;2022-07-04T10:21:33;30.60;29.40
52799;DHT22;38667;42.872;74.622;2022-07-04T10:23:59;30.40;30.90
52799;DHT22;38667;42.872;74.622;2022-07-04T10:26:27;30.80;29.60
52799;DHT22;38667;42.872;74.622;2022-07-04T10:28:54;31.20;29.50
52799;DHT22;38667;42.872;74.622;2022-07-04T10:31:22;31.30;28.30
52799;DHT22;38667;42.872;74.622;2022-07-04T10:33:49;31.00;30.10
52799;DHT22;38667;42.872;74.622;2022-07-04T10:36:17;30.60;30.20
52799;DHT22;38667;42.872;74.622;2022-07-04T10:38:49;30.50;30.00
52799;DHT22;38667;42.872;74.622;2022-07-04T10:41:16;30.60;29.90
52799;DHT22;38667;42.872;74.622;2022-07-04T10:43:55;30.50;29.50
52799;DHT22;38667;42.872;74.622;2022-07-04T10:46:35;30.20;29.50
52799;DHT22;38667;42.872;74.622;2022-07-04T10:49:03;30.10;30.20
52799;DHT22;38667;42.872;74.622;2022-07-04T10:51:42;29.90;30.00
52799;DHT22;38667;42.872;74.622;2022-07-04T10:54:10;29.80;30.60
52799;DHT22;38667;42.872;74.622;2022-07-04T10:56:38;29.90;32.70
52799;DHT22;38667;42.872;74.622;2022-07-04T10:59:11;30.30;30.40
52799;DHT22;38667;42.872;74.622;2022-07-04T11:01:38;30.20;30.80
52799;DHT22;38667;42.872;74.622;2022-07-04T11:04:05;30.50;29.50
52799;DHT22;38667;42.872;74.622;2022-07-04T11:06:49;31.00;30.10
52799;DHT22;38667;42.872;74.622;2022-07-04T11:09:16;31.00;30.50
52799;DHT22;38667;42.872;74.622;2022-07-04T11:11:50;30.60;30.80
52799;DHT22;38667;42.872;74.622;2022-07-04T11:14:37;30.70;31.40
52799;DHT22;38667;42.872;74.622;2022-07-04T11:17:04;31.30;28.60
52799;DHT22;38667;42.872;74.622;2022-07-04T11:19:30;31.60;28.20
52799;DHT22;38667;42.872;74.622;2022-07-04T11:21:57;31.70;28.00
52799;DHT22;38667;42.872;74.622;2022-07-04T11:24:24;31.50;28.90
52799;DHT22;38667;42.872;74.622;2022-07-04T11:26:50;30.90;29.70
52799;DHT22;38667;42.872;74.622;2022-07-04T11:29:17;31.00;30.60
52799;DHT22;38667;42.872;74.622;2022-07-04T11:31:46;30.90;30.00
52799;DHT22;38667;42.872;74.622;2022-07-04T11:34:13;31.10;30.70
52799;DHT22;38667;42.872;74.622;2022-07-04T11:36:40;30.70;30.40
52799;DHT22;38667;42.872;74.622;2022-07-04T11:39:08;31.00;29.60
52799;DHT22;38667;42.872;74.622;2022-07-04T11:41:36;31.50;29.50
52799;DHT22;38667;42.872;74.622;2022-07-04T11:44:04;31.70;28.10
52799;DHT22;38667;42.872;74.622;2022-07-04T11:46:30;31.80;28.60
52799;DHT22;38667;42.872;74.622;2022-07-04T11:49:09;31.40;28.70
52799;DHT22;38667;42.872;74.622;2022-07-04T11:51:35;31.20;29.00
52799;DHT22;38667;42.872;74.622;2022-07-04T11:54:07;31.40;28.50
52799;DHT22;38667;42.872;74.622;2022-07-04T11:56:33;31.60;28.30
52799;DHT22;38667;42.872;74.622;2022-07-04T11:59:10;31.60;28.60
52799;DHT22;38667;42.872;74.622;2022-07-04T12:01:36;31.40;28.80
52799;DHT22;38667;42.872;74.622;2022-07-04T12:04:13;31.50;28.70
52799;DHT22;38667;42.872;74.622;2022-07-04T12:06:40;31.60;28.90
52799;DHT22;38667;42.872;74.622;2022-07-04T12:09:06;31.60;28.80
52799;DHT22;38667;42.872;74.622;2022-07-04T12:11:54;31.30;29.50
52799;DHT22;38667;42.872;74.622;2022-07-04T12:14:21;30.90;30.50
52799;DHT22;38667;42.872;74.622;2022-07-04T12:16:47;30.40;31.30
52799;DHT22;38667;42.872;74.622;2022-07-04T12:19:15;30.20;31.40
52799;DHT22;38667;42.872;74.622;2022-07-04T12:21:43;30.10;31.40
52799;DHT22;38667;42.872;74.622;2022-07-04T12:24:09;30.00;31.50
52799;DHT22;38667;42.872;74.622;2022-07-04T12:26:45;30.00;31.30
52799;DHT22;38667;42.872;74.622;2022-07-04T12:29:12;30.30;30.00
52799;DHT22;38667;42.872;74.622;2022-07-04T12:31:45;30.70;29.10
52799;DHT22;38667;42.872;74.622;2022-07-04T12:34:17;31.00;29.10
52799;DHT22;38667;42.872;74.622;2022-07-04T12:36:50;31.10;28.80
52799;DHT22;38667;42.872;74.622;2022-07-04T12:39:28;31.30;28.80
52799;DHT22;38667;42.872;74.622;2022-07-04T12:42:04;31.60;27.30
52799;DHT22;38667;42.872;74.622;2022-07-04T12:44:30;31.60;27.90
52799;DHT22;38667;42.872;74.622;2022-07-04T12:46:57;31.10;28.90
52799;DHT22;38667;42.872;74.622;2022-07-04T12:49:24;31.00;29.40
52799;DHT22;38667;42.872;74.622;2022-07-04T12:51:51;30.90;31.20
52799;DHT22;38667;42.872;74.622;2022-07-04T12:54:17;31.00;29.90
52799;DHT22;38667;42.872;74.622;2022-07-04T12:56:46;31.00;29.70
52799;DHT22;38667;42.872;74.622;2022-07-04T12:59:13;31.00;29.50
52799;DHT22;38667;42.872;74.622;2022-07-04T13:01:40;31.00;30.10
52799;DHT22;38667;42.872;74.622;2022-07-04T13:04:07;31.00;29.40
52799;DHT22;38667;42.872;74.622;2022-07-04T13:06:36;31.10;29.10
52799;DHT22;38667;42.872;74.622;2022-07-04T13:09:04;31.10;29.40
52799;DHT22;38667;42.872;74.622;2022-07-04T13:11:30;31.00;29.70
52799;DHT22;38667;42.872;74.622;2022-07-04T13:13:57;31.00;30.30
52799;DHT22;38667;42.872;74.622;2022-07-04T13:16:23;31.00;29.20
52799;DHT22;38667;42.872;74.622;2022-07-04T13:18:49;31.10;28.70
52799;DHT22;38667;42.872;74.622;2022-07-04T13:21:16;31.10;29.00
52799;DHT22;38667;42.872;74.622;2022-07-04T13:23:44;31.10;29.60
52799;DHT22;38667;42.872;74.622;2022-07-04T13:26:10;31.00;29.90
52799;DHT22;38667;42.872;74.622;2022-07-04T13:28:36;31.00;29.80
52799;DHT22;38667;42.872;74.622;2022-07-04T13:31:04;31.00;29.70
52799;DHT22;38667;42.872;74.622;2022-07-04T13:33:30;31.00;29.80
52799;DHT22;38667;42.872;74.622;2022-07-04T13:35:56;30.90;30.10
52799;DHT22;38667;42.872;74.622;2022-07-04T13:38:23;30.90;30.00
52799;DHT22;38667;42.872;74.622;2022-07-04T13:40:50;30.80;30.10
52799;DHT22;38667;42.872;74.622;2022-07-04T13:43:17;30.80;30.40
52799;DHT22;38667;42.872;74.622;2022-07-04T13:45:43;30.80;31.20
52799;DHT22;38667;42.872;74.622;2022-07-04T13:48:09;30.60;31.30
52799;DHT22;38667;42.872;74.622;2022-07-04T13:50:36;30.60;31.40
52799;DHT22;38667;42.872;74.622;2022-07-04T13:53:02;30.50;31.80
52799;DHT22;38667;42.872;74.622;2022-07-04T13:55:29;30.30;33.30
52799;DHT22;38667;42.872;74.622;2022-07-04T13:57:57;29.90;33.80
52799;DHT22;38667;42.872;74.622;2022-07-04T14:00:23;29.60;34.20
52799;DHT22;38667;42.872;74.622;2022-07-04T14:02:50;29.40;34.80
52799;DHT22;38667;42.872;74.622;2022-07-04T14:05:16;29.20;34.80
52799;DHT22;38667;42.872;74.622;2022-07-04T14:07:42;29.20;34.70
52799;DHT22;38667;42.872;74.622;2022-07-04T14:10:09;29.30;34.10
52799;DHT22;38667;42.872;74.622;2022-07-04T14:12:35;29.40;34.40
52799;DHT22;38667;42.872;74.622;2022-07-04T14:15:03;29.40;34.60
52799;DHT22;38667;42.872;74.622;2022-07-04T14:17:30;29.40;34.10
52799;DHT22;38667;42.872;74.622;2022-07-04T14:19:56;29.50;33.80
52799;DHT22;38667;42.872;74.622;2022-07-04T14:22:22;29.60;33.10
52799;DHT22;38667;42.872;74.622;2022-07-04T14:24:49;29.70;32.40
52799;DHT22;38667;42.872;74.622;2022-07-04T14:27:15;29.80;32.50
52799;DHT22;38667;42.872;74.622;2022-07-04T14:29:42;29.80;33.30
52799;DHT22;38667;42.872;74.622;2022-07-04T14:32:10;29.70;34.10
52799;DHT22;38667;42.872;74.622;2022-07-04T14:34:36;29.60;33.50
52799;DHT22;38667;42.872;74.622;2022-07-04T14:37:03;29.60;34.40
52799;DHT22;38667;42.872;74.622;2022-07-04T14:39:29;29.40;35.00
52799;DHT22;38667;42.872;74.622;2022-07-04T14:41:55;29.30;35.50
52799;DHT22;38667;42.872;74.622;2022-07-04T14:44:22;29.30;34.90
52799;DHT22;38667;42.872;74.622;2022-07-04T14:46:48;29.30;35.10
52799;DHT22;38667;42.872;74.622;2022-07-04T14:49:16;29.30;34.80
52799;DHT22;38667;42.872;74.622;2022-07-04T14:51:42;29.30;35.10
52799;DHT22;38667;42.872;74.622;2022-07-04T14:54:09;29.40;34.90
52799;DHT22;38667;42.872;74.622;2022-07-04T14:56:36;29.50;34.90
52799;DHT22;38667;42.872;74.622;2022-07-04T14:59:02;29.30;35.60
52799;DHT22;38667;42.872;74.622;2022-07-04T15:01:29;29.20;35.90
52799;DHT22;38667;42.872;74.622;2022-07-04T15:03:55;29.10;36.20
52799;DHT22;38667;42.872;74.622;2022-07-04T15:06:23;28.90;36.10
52799;DHT22;38667;42.872;74.622;2022-07-04T15:08:49;28.90;36.20
52799;DHT22;38667;42.872;74.622;2022-07-04T15:11:16;28.80;36.00
52799;DHT22;38667;42.872;74.622;2022-07-04T15:13:42;28.70;36.20
52799;DHT22;38667;42.872;74.622;2022-07-04T15:16:08;28.70;35.70
52799;DHT22;38667;42.872;74.622;2022-07-04T15:18:36;28.90;35.60
52799;DHT22;38667;42.872;74.622;2022-07-04T15:21:02;28.90;36.00
52799;DHT22;38667;42.872;74.622;2022-07-04T15:23:30;28.90;36.00
52799;DHT22;38667;42.872;74.622;2022-07-04T15:25:56;28.70;36.20
52799;DHT22;38667;42.872;74.622;2022-07-04T15:28:22;28.70;36.30
52799;DHT22;38667;42.872;74.622;2022-07-04T15:30:49;28.70;36.80
52799;DHT22;38667;42.872;74.622;2022-07-04T15:33:15;28.60;36.80
52799;DHT22;38667;42.872;74.622;2022-07-04T15:35:41;28.60;36.90
52799;DHT22;38667;42.872;74.622;2022-07-04T15:38:08;28.60;36.80
52799;DHT22;38667;42.872;74.622;2022-07-04T15:40:36;28.50;37.10
52799;DHT22;38667;42.872;74.622;2022-07-04T15:43:03;28.50;37.10
52799;DHT22;38667;42.872;74.622;2022-07-04T15:45:29;28.50;37.00
52799;DHT22;38667;42.872;74.622;2022-07-04T15:47:55;28.50;36.90
52799;DHT22;38667;42.872;74.622;2022-07-04T15:50:21;28.40;36.20
52799;DHT22;38667;42.872;74.622;2022-07-04T15:52:48;28.50;36.10
52799;DHT22;38667;42.872;74.622;2022-07-04T15:55:14;28.40;35.80
52799;DHT22;38667;42.872;74.622;2022-07-04T15:57:42;28.50;35.90
52799;DHT22;38667;42.872;74.622;2022-07-04T16:00:09;28.50;35.80
52799;DHT22;38667;42.872;74.622;2022-07-04T16:02:36;28.50;35.90
52799;DHT22;38667;42.872;74.622;2022-07-04T16:05:02;28.40;35.20
52799;DHT22;38667;42.872;74.622;2022-07-04T16:07:29;28.40;35.10
52799;DHT22;38667;42.872;74.622;2022-07-04T16:09:55;28.40;34.90
52799;DHT22;38667;42.872;74.622;2022-07-04T16:12:21;28.40;35.10
52799;DHT22;38667;42.872;74.622;2022-07-04T16:14:49;28.40;36.60
52799;DHT22;38667;42.872;74.622;2022-07-04T16:17:15;28.40;37.20
52799;DHT22;38667;42.872;74.622;2022-07-04T16:19:42;28.40;37.10
52799;DHT22;38667;42.872;74.622;2022-07-04T16:22:08;28.30;37.80
52799;DHT22;38667;42.872;74.622;2022-07-04T16:24:34;28.30;37.10
52799;DHT22;38667;42.872;74.622;2022-07-04T16:27:01;28.30;36.30
52799;DHT22;38667;42.872;74.622;2022-07-04T16:29:27;28.30;35.50
52799;DHT22;38667;42.872;74.622;2022-07-04T16:31:55;28.30;34.90
52799;DHT22;38667;42.872;74.622;2022-07-04T16:34:21;28.40;34.80
52799;DHT22;38667;42.872;74.622;2022-07-04T16:36:47;28.50;34.40
52799;DHT22;38667;42.872;74.622;2022-07-04T16:39:14;28.60;34.20
52799;DHT22;38667;42.872;74.622;2022-07-04T16:41:40;28.70;34.70
52799;DHT22;38667;42.872;74.622;2022-07-04T16:44:07;28.70;35.20
52799;DHT22;38667;42.872;74.622;2022-07-04T16:46:34;28.80;35.70
52799;DHT22;38667;42.872;74.622;2022-07-04T16:49:02;28.80;36.10
52799;DHT22;38667;42.872;74.622;2022-07-04T16:51:28;28.80;36.40
52799;DHT22;38667;42.872;74.622;2022-07-04T16:53:54;28.70;36.20
52799;DHT22;38667;42.872;74.622;2022-07-04T16:56:21;28.70;36.20
52799;DHT22;38667;42.872;74.622;2022-07-04T16:58:47;28.70;36.40
52799;DHT22;38667;42.872;74.622;2022-07-04T17:01:13;28.70;36.40
52799;DHT22;38667;42.872;74.622;2022-07-04T17:03:40;28.70;36.20
52799;DHT22;38667;42.872;74.622;2022-07-04T17:06:07;28.70;36.00
52799;DHT22;38667;42.872;74.622;2022-07-04T17:08:34;28.70;35.80
52799;DHT22;38667;42.872;74.622;2022-07-04T17:11:00;28.60;35.90
52799;DHT22;38667;42.872;74.622;2022-07-04T17:13:26;28.70;35.60
52799;DHT22;38667;42.872;74.622;2022-07-04T17:15:52;28.70;35.50
52799;DHT22;38667;42.872;74.622;2022-07-04T17:18:19;28.70;35.40
52799;DHT22;38667;42.872;74.622;2022-07-04T17:20:45;28.70;35.30
52799;DHT22;38667;42.872;74.622;2022-07-04T17:23:13;28.70;35.30
52799;DHT22;38667;42.872;74.622;2022-07-04T17:25:40;28.60;35.30
52799;DHT22;38667;42.872;74.622;2022-07-04T17:28:06;28.60;35.40
52799;DHT22;38667;42.872;74.622;2022-07-04T17:30:32;28.60;35.70
52799;DHT22;38667;42.872;74.622;2022-07-04T17:32:59;28.60;35.30
52799;DHT22;38667;42.872;74.622;2022-07-04T17:35:25;28.50;35.40
52799;DHT22;38667;42.872;74.622;2022-07-04T17:37:51;28.50;35.10
52799;DHT22;38667;42.872;74.622;2022-07-04T17:40:19;28.40;34.60
52799;DHT22;38667;42.872;74.622;2022-07-04T17:42:45;28.50;34.80
52799;DHT22;38667;42.872;74.622;2022-07-04T17:45:12;28.50;35.00
52799;DHT22;38667;42.872;74.622;2022-07-04T17:47:38;28.40;34.90
52799;DHT22;38667;42.872;74.622;2022-07-04T17:50:05;28.40;35.00
52799;DHT22;38667;42.872;74.622;2022-07-04T17:52:31;28.40;35.00
52799;DHT22;38667;42.872;74.622;2022-07-04T17:54:58;28.40;35.30
52799;DHT22;38667;42.872;74.622;2022-07-04T17:57:25;28.30;35.30
52799;DHT22;38667;42.872;74.622;2022-07-04T17:59:52;28.30;35.80
52799;DHT22;38667;42.872;74.622;2022-07-04T18:02:18;28.30;35.50
52799;DHT22;38667;42.872;74.622;2022-07-04T18:04:45;28.30;35.40
52799;DHT22;38667;42.872;74.622;2022-07-04T18:07:11;28.20;35.40
52799;DHT22;38667;42.872;74.622;2022-07-04T18:09:37;28.10;35.30
52799;DHT22;38667;42.872;74.622;2022-07-04T18:12:04;28.10;36.10
52799;DHT22;38667;42.872;74.622;2022-07-04T18:14:32;28.10;36.20
52799;DHT22;38667;42.872;74.622;2022-07-04T18:16:58;28.00;35.80
52799;DHT22;38667;42.872;74.622;2022-07-04T18:19:25;28.10;36.30
52799;DHT22;38667;42.872;74.622;2022-07-04T18:21:51;28.10;36.30
52799;DHT22;38667;42.872;74.622;2022-07-04T18:24:17;28.00;36.40
52799;DHT22;38667;42.872;74.622;2022-07-04T18:26:43;28.10;36.50
52799;DHT22;38667;42.872;74.622;2022-07-04T18:29:10;28.10;36.50
52799;DHT22;38667;42.872;74.622;2022-07-04T18:31:38;28.00;36.50
52799;DHT22;38667;42.872;74.622;2022-07-04T18:34:04;28.00;36.40
52799;DHT22;38667;42.872;74.622;2022-07-04T18:36:30;28.00;36.30